地図

経路データ

SID SEASON NUMBER BASIN SUBBASIN NAME ISO_TIME NATURE LAT LON WMO_WIND WMO_PRES WMO_AGENCY TRACK_TYPE DIST2LAND LANDFALL IFLAG USA_AGENCY USA_ATCF_ID USA_LAT USA_LON USA_RECORD USA_STATUS USA_WIND USA_PRES USA_SSHS USA_R34_NE USA_R34_SE USA_R34_SW USA_R34_NW USA_R50_NE USA_R50_SE USA_R50_SW USA_R50_NW USA_R64_NE USA_R64_SE USA_R64_SW USA_R64_NW USA_POCI USA_ROCI USA_RMW USA_EYE TOKYO_LAT TOKYO_LON TOKYO_GRADE TOKYO_WIND TOKYO_PRES TOKYO_R50_DIR TOKYO_R50_LONG TOKYO_R50_SHORT TOKYO_R30_DIR TOKYO_R30_LONG TOKYO_R30_SHORT TOKYO_LAND CMA_LAT CMA_LON CMA_CAT CMA_WIND CMA_PRES HKO_LAT HKO_LON HKO_CAT HKO_WIND HKO_PRES NEWDELHI_LAT NEWDELHI_LON NEWDELHI_GRADE NEWDELHI_WIND NEWDELHI_PRES NEWDELHI_CI NEWDELHI_DP NEWDELHI_POCI REUNION_LAT REUNION_LON REUNION_TYPE REUNION_WIND REUNION_PRES REUNION_TNUM REUNION_CI REUNION_RMW REUNION_R34_NE REUNION_R34_SE REUNION_R34_SW REUNION_R34_NW REUNION_R50_NE REUNION_R50_SE REUNION_R50_SW REUNION_R50_NW REUNION_R64_NE REUNION_R64_SE REUNION_R64_SW REUNION_R64_NW BOM_LAT BOM_LON BOM_TYPE BOM_WIND BOM_PRES BOM_TNUM BOM_CI BOM_RMW BOM_R34_NE BOM_R34_SE BOM_R34_SW BOM_R34_NW BOM_R50_NE BOM_R50_SE BOM_R50_SW BOM_R50_NW BOM_R64_NE BOM_R64_SE BOM_R64_SW BOM_R64_NW BOM_ROCI BOM_POCI BOM_EYE BOM_POS_METHOD BOM_PRES_METHOD NADI_LAT NADI_LON NADI_CAT NADI_WIND NADI_PRES WELLINGTON_LAT WELLINGTON_LON WELLINGTON_WIND WELLINGTON_PRES DS824_LAT DS824_LON DS824_STAGE DS824_WIND DS824_PRES TD9636_LAT TD9636_LON TD9636_STAGE TD9636_WIND TD9636_PRES TD9635_LAT TD9635_LON TD9635_WIND TD9635_PRES TD9635_ROCI NEUMANN_LAT NEUMANN_LON NEUMANN_CLASS NEUMANN_WIND NEUMANN_PRES MLC_LAT MLC_LON MLC_CLASS MLC_WIND MLC_PRES USA_GUST BOM_GUST BOM_GUST_PER REUNION_GUST REUNION_GUST_PER USA_SEAHGT USA_SEARAD_NE USA_SEARAD_SE USA_SEARAD_SW USA_SEARAD_NW STORM_SPEED STORM_DIR
1992167N12088 1992 38 NI BB NOT_NAMED 1992-06-14 12:00:00 NR 12.2000 88.1000 main 783 765 O_____________ jtwc_io IO031992 12.2000 88.1000 25 -1 7 354
1992167N12088 1992 38 NI BB NOT_NAMED 1992-06-14 15:00:00 NR 12.5500 88.0701 main 759 740 P_____________ IO031992 12.5500 88.0701 25 -1 7 0
1992167N12088 1992 38 NI BB NOT_NAMED 1992-06-14 18:00:00 NR 12.9000 88.1000 main 740 717 O_____________ jtwc_io IO031992 12.9000 88.1000 25 -1 7 12
1992167N12088 1992 38 NI BB NOT_NAMED 1992-06-14 21:00:00 NR 13.2500 88.2274 main 711 679 P_____________ IO031992 13.2500 88.2274 25 -1 8 23
1992167N12088 1992 38 NI BB NOT_NAMED 1992-06-15 00:00:00 NR 13.6000 88.4000 main 679 656 O_____________ jtwc_io IO031992 13.6000 88.4000 25 -1 8 24
1992167N12088 1992 38 NI BB NOT_NAMED 1992-06-15 03:00:00 NR 13.9575 88.5500 main 641 620 P_____________ IO031992 13.9575 88.5500 25 -1 8 23
1992167N12088 1992 38 NI BB NOT_NAMED 1992-06-15 06:00:00 NR 14.3000 88.7000 main 620 589 O_____________ jtwc_io IO031992 14.3000 88.7000 25 -1 7 26
1992167N12088 1992 38 NI BB NOT_NAMED 1992-06-15 09:00:00 NR 14.6000 88.8650 main 589 570 P_____________ IO031992 14.6000 88.8650 25 -1 7 26
1992167N12088 1992 38 NI BB NOT_NAMED 1992-06-15 12:00:00 NR 14.9000 89.0000 main 570 553 O_____________ jtwc_io IO031992 14.9000 89.0000 25 -1 7 18
1992167N12088 1992 38 NI BB NOT_NAMED 1992-06-15 15:00:00 NR 15.2425 89.0725 main 553 547 P_____________ IO031992 15.2425 89.0725 25 -1 7 8
1992167N12088 1992 38 NI BB NOT_NAMED 1992-06-15 18:00:00 NR 15.6000 89.1000 main 547 540 O_____________ jtwc_io IO031992 15.6000 89.1000 25 -1 7 4
1992167N12088 1992 38 NI BB NOT_NAMED 1992-06-15 21:00:00 NR 15.9500 89.1150 main 530 502 P_____________ IO031992 15.9500 89.1150 25 -1 7 0
1992167N12088 1992 38 NI BB NOT_NAMED 1992-06-16 00:00:00 NR 16.3000 89.1000 main 502 475 O_____________ jtwc_io IO031992 16.3000 89.1000 25 -1 7 357
1992167N12088 1992 38 NI BB NOT_NAMED 1992-06-16 03:00:00 NR 16.6500 89.0650 main 466 433 P_____________ IO031992 16.6500 89.0650 25 -1 7 352
1992167N12088 1992 38 NI BB NOT_NAMED 1992-06-16 06:00:00 NR 17.0000 89.0000 main 433 400 O_____________ jtwc_io IO031992 17.0000 89.0000 25 -1 7 348
1992167N12088 1992 38 NI BB NOT_NAMED 1992-06-16 09:00:00 NR 17.3500 88.9075 main 392 360 P_____________ IO031992 17.3500 88.9075 25 -1 7 345
1992167N12088 1992 38 NI BB NOT_NAMED 1992-06-16 12:00:00 NR 17.7000 88.8000 main 360 329 O_____________ jtwc_io IO031992 17.7000 88.8000 25 -1 7 345
1992167N12088 1992 38 NI BB NOT_NAMED 1992-06-16 15:00:00 NR 18.0575 88.7074 main 321 291 P_____________ IO031992 18.0575 88.7074 27 -1 7 345
1992167N12088 1992 38 NI BB NOT_NAMED 1992-06-16 18:00:00 NR 18.4000 88.6000 main 291 260 O_____________ jtwc_io IO031992 18.4000 88.6000 30 -1 7 340
1992167N12088 1992 38 NI BB NOT_NAMED 1992-06-16 21:00:00 NR 18.7150 88.4575 main 260 221 P_____________ IO031992 18.7150 88.4575 30 -1 7 335
1992167N12088 1992 38 NI BB NOT_NAMED 1992-06-17 00:00:00 NR 19.0000 88.3000 main 221 199 O_____________ jtwc_io IO031992 19.0000 88.3000 30 -1 6 333
1992167N12088 1992 38 NI BB NOT_NAMED 1992-06-17 03:00:00 NR 19.2574 88.1649 main 192 162 P_____________ IO031992 19.2574 88.1649 30 -1 6 330
1992167N12088 1992 38 NI BB NOT_NAMED 1992-06-17 06:00:00 NR 19.5000 88.0000 main 162 133 O_____________ jtwc_io IO031992 19.5000 88.0000 30 -1 6 323
1992167N12088 1992 38 NI BB NOT_NAMED 1992-06-17 09:00:00 NR 19.7575 87.7650 main 127 89 P_____________ IO031992 19.7575 87.7650 32 -1 7 317
1992167N12088 1992 38 NI BB NOT_NAMED 1992-06-17 12:00:00 NR 20.0000 87.5000 main 89 61 O_____________ jtwc_io IO031992 20.0000 87.5000 35 0 7 315
1992167N12088 1992 38 NI BB NOT_NAMED 1992-06-17 15:00:00 NR 20.2223 87.2724 main 61 23 P_____________ IO031992 20.2223 87.2724 40 0 6 310
1992167N12088 1992 38 NI BB NOT_NAMED 1992-06-17 18:00:00 NR 20.4000 87.0000 main 23 0 O_____________ jtwc_io IO031992 20.4000 87.0000 45 0 6 297
1992167N12088 1992 38 NI BB NOT_NAMED 1992-06-17 21:00:00 NR 20.5071 86.6747 main 0 0 P_____________ IO031992 20.5071 86.6747 40 0 8 285
1992167N12088 1992 38 NI BB NOT_NAMED 1992-06-18 00:00:00 NR 20.6000 86.2000 main 0 0 O_____________ jtwc_io IO031992 20.6000 86.2000 35 0 11 282
1992167N12088 1992 38 NI BB NOT_NAMED 1992-06-18 03:00:00 NR 20.7273 85.5322 main 0 0 P_____________ IO031992 20.7273 85.5322 30 -1 14 282
1992167N12088 1992 38 NI BB NOT_NAMED 1992-06-18 06:00:00 NR 20.9000 84.7000 main 0 0 O_____________ jtwc_io IO031992 20.9000 84.7000 25 -1 17 284
1992167N12088 1992 38 NI BB NOT_NAMED 1992-06-18 09:00:00 NR 21.1336 83.7734 main 0 0 P_____________ IO031992 21.1336 83.7734 25 -1 18 286
1992167N12088 1992 38 NI BB NOT_NAMED 1992-06-18 12:00:00 NR 21.4000 82.8000 main 0 O_____________ jtwc_io IO031992 21.4000 82.8000 25 -1 19 286

IBTrACS Databaseについて

本データベースは、米国NOAAが公開する1842年以降の世界の熱帯低気圧のベストトラックデータアーカイブInternational Best Track Archive for Climate Stewardship (IBTrACS)を、ウェブで閲覧しやすい形式に変換したものです。

最終更新日:2021-12-06